July 20, 2018 4:49 AM EDT
Weather Information
Wind Direction
  ---
Wind Speed
  00 kt (0 mph)
Wind Gust
  00 kt (0 mph)
Altimeter
29.93 in
Visibility
10 SM
Temperature
20° C
68° F
Dewpoint
18° C
64° F
Humidity
88%
Sky Condition
Overcast @ 6,000 ft
VFR

METAR KIMS 200849Z AUTO 00000KT 10SM OVC060 20/18 A2993 RMK AO1

FAA Disclaimer: The data displayed is for advisory purposes only and is not to be used for flight planning or operations.